Time;durP1;ratioP1;P1;durP2;ratioP2;P2;SDS_P1;SDS_P2;PMS_P1;PMS_P2;Temp;Humidity;BMP_temperature;BMP_pressure;BME280_temperature;BME280_humidity;BME280_pressure;Samples;Min_cycle;Max_cycle;Signal;HPM_P1;HPM_P2
2022/11/17 00:01:09;;;;;;;;;;;;;;;;;;5024322;28;5085;-54
2022/11/17 00:03:34;;;;;;;;;;;;;;;;;;5018400;28;5144;-54
2022/11/17 00:06:05;;;;;;;;;;;;;;;;;;5022674;28;4612;-54
2022/11/17 00:08:30;;;;;;;;;;;;;;;;;;5027145;28;5108;-52
2022/11/17 00:10:59;;;;;;;;;;;;;;;;;;5026071;28;1960;-54
2022/11/17 00:16:10;;;;;;;;;;;;;;;;;;5013793;28;5109;-52
2022/11/17 00:21:20;;;;;;;;;;;;;;;;;;5018114;28;4645;-54
2022/11/17 00:23:46;;;;;;;;;;;;;;;;;;5025070;28;4828;-53
2022/11/17 00:26:15;;;;;;;;;;;;;;;;;;5024150;28;1828;-55
2022/11/17 00:28:40;;;;;;;;;;;;;;;;;;5008812;28;5016;-56
2022/11/17 00:34:03;;;;;;;;;;;;;;;;;;5027211;28;5106;-54
2022/11/17 00:36:28;;;;;;;;;;;;;;;;;;5027941;28;4986;-55
2022/11/17 00:38:54;;;;;;;;;;;;;;;;;;5043620;28;5082;-56
2022/11/17 00:41:19;;;;;;;;;;;;;;;;;;5024165;28;1805;-53
2022/11/17 00:43:44;;;;;;;;;;;;;;;;;;5024877;28;4623;-56
2022/11/17 00:46:09;;;;;;;;;;;;;;;;;;5005328;28;5203;-55
2022/11/17 00:48:35;;;;;;;;;;;;;;;;;;5002102;28;5063;-55
2022/11/17 00:51:02;;;;;;;;;;;;;;;;;;5008305;28;4483;-55
2022/11/17 00:53:27;;;;;;;;;;;;;;;;;;5008550;28;5070;-52
2022/11/17 00:55:52;;;;;;;;;;;;;;;;;;5011623;28;1918;-53
2022/11/17 00:58:18;;;;;;;;;;;;;;;;;;5023578;28;5035;-53
2022/11/17 01:00:43;;;;;;;;;;;;;;;;;;5022951;28;5092;-55
2022/11/17 01:03:08;;;;;;;;;;;;;;;;;;5014305;28;5123;-53
2022/11/17 01:05:33;;;;;;;;;;;;;;;;;;5006410;28;4502;-55
2022/11/17 01:07:59;;;;;;;;;;;;;;;;;;5014270;28;1879;-53
2022/11/17 01:10:24;;;;;;;;;;;;;;;;;;5042341;28;4998;-54
2022/11/17 01:12:49;;;;;;;;;;;;;;;;;;5017407;28;4596;-53
2022/11/17 01:15:14;;;;;;;;;;;;;;;;;;5020996;28;5185;-54
2022/11/17 01:17:40;;;;;;;;;;;;;;;;;;5014419;28;4953;-54
2022/11/17 01:20:05;;;;;;;;;;;;;;;;;;5021867;28;1586;-54
2022/11/17 01:22:30;;;;;;;;;;;;;;;;;;4998045;28;4378;-56
2022/11/17 01:24:56;;;;;;;;;;;;;;;;;;5021175;28;5029;-54
2022/11/17 01:27:21;;;;;;;;;;;;;;;;;;5020480;28;4896;-53
2022/11/17 01:29:46;;;;;;;;;;;;;;;;;;5018187;28;4964;-54
2022/11/17 01:32:11;;;;;;;;;;;;;;;;;;5018683;28;1837;-54
2022/11/17 01:34:37;;;;;;;;;;;;;;;;;;5016392;28;5263;-52
2022/11/17 01:37:20;;;;;;;;;;;;;;;;;;5024744;28;5497;-52
2022/11/17 01:39:46;;;;;;;;;;;;;;;;;;5028048;28;5513;-54
2022/11/17 01:42:12;;;;;;;;;;;;;;;;;;5020620;28;4846;-52
2022/11/17 01:44:40;;;;;;;;;;;;;;;;;;5014098;28;4845;-54
2022/11/17 01:47:32;;;;;;;;;;;;;;;;;;5021285;28;1888;-54
2022/11/17 01:50:02;;;;;;;;;;;;;;;;;;5019128;28;5078;-53
2022/11/17 01:52:27;;;;;;;;;;;;;;;;;;5029814;28;4905;-53
2022/11/17 01:54:52;;;;;;;;;;;;;;;;;;5009636;28;5198;-55
2022/11/17 01:57:19;;;;;;;;;;;;;;;;;;4996302;28;5139;-54
2022/11/17 01:59:45;;;;;;;;;;;;;;;;;;4994936;28;5117;-55
2022/11/17 02:02:10;;;;;;;;;;;;;;;;;;5021938;28;1902;-54
2022/11/17 02:05:02;;;;;;;;;;;;;;;;;;5010953;28;4583;-53
2022/11/17 02:07:28;;;;;;;;;;;;;;;;;;4997022;28;4826;-54
2022/11/17 02:09:54;;;;;;;;;;;;;;;;;;4993188;28;4503;-55
2022/11/17 02:12:19;;;;;;;;;;;;;;;;;;5035690;28;5019;-55
2022/11/17 02:14:44;;;;;;;;;;;;;;;;;;5029300;28;4705;-54
2022/11/17 02:17:10;;;;;;;;;;;;;;;;;;5013793;28;1898;-54
2022/11/17 02:19:36;;;;;;;;;;;;;;;;;;5010951;28;4841;-54
2022/11/17 02:22:10;;;;;;;;;;;;;;;;;;5021967;28;4525;-53
2022/11/17 02:24:42;;;;;;;;;;;;;;;;;;4999924;28;5015;-55
2022/11/17 02:27:16;;;;;;;;;;;;;;;;;;4991619;28;5176;-55
2022/11/17 02:29:54;;;;;;;;;;;;;;;;;;5007415;28;5111;-53
2022/11/17 02:32:23;;;;;;;;;;;;;;;;;;4999435;28;1906;-54
2022/11/17 02:35:07;;;;;;;;;;;;;;;;;;5005581;28;5009;-50
2022/11/17 02:37:36;;;;;;;;;;;;;;;;;;5000953;28;4622;-54
2022/11/17 02:40:04;;;;;;;;;;;;;;;;;;5014036;28;4967;-52
2022/11/17 02:45:16;;;;;;;;;;;;;;;;;;5016149;28;4586;-55
2022/11/17 02:47:42;;;;;;;;;;;;;;;;;;5006124;28;5050;-54
2022/11/17 02:50:07;;;;;;;;;;;;;;;;;;4994800;28;1790;-54
2022/11/17 02:52:32;;;;;;;;;;;;;;;;;;5014995;28;4851;-54
2022/11/17 02:55:01;;;;;;;;;;;;;;;;;;4990484;28;5004;-54
2022/11/17 02:57:33;;;;;;;;;;;;;;;;;;4990286;28;5190;-55
2022/11/17 03:00:00;;;;;;;;;;;;;;;;;;4991733;28;4514;-56
2022/11/17 03:02:34;;;;;;;;;;;;;;;;;;5016912;28;4977;-54
2022/11/17 03:05:02;;;;;;;;;;;;;;;;;;4990963;28;1121;-54
2022/11/17 03:07:40;;;;;;;;;;;;;;;;;;4990260;28;4737;-54
2022/11/17 03:10:08;;;;;;;;;;;;;;;;;;5020022;28;5039;-54
2022/11/17 03:12:54;;;;;;;;;;;;;;;;;;5006535;28;5054;-54
2022/11/17 03:15:24;;;;;;;;;;;;;;;;;;4995425;28;5111;-54
2022/11/17 03:17:53;;;;;;;;;;;;;;;;;;5013062;28;5000;-54
2022/11/17 03:20:22;;;;;;;;;;;;;;;;;;5009564;28;1789;-55
2022/11/17 03:22:49;;;;;;;;;;;;;;;;;;5014805;28;5118;-56
2022/11/17 03:25:15;;;;;;;;;;;;;;;;;;4994739;28;4759;-55
2022/11/17 03:27:44;;;;;;;;;;;;;;;;;;4991609;28;5144;-54
2022/11/17 03:30:09;;;;;;;;;;;;;;;;;;5005863;28;5003;-55
2022/11/17 03:32:35;;;;;;;;;;;;;;;;;;5006625;28;5073;-55
2022/11/17 03:35:04;;;;;;;;;;;;;;;;;;5009506;28;1606;-55
2022/11/17 03:37:30;;;;;;;;;;;;;;;;;;5025540;28;5027;-54
2022/11/17 03:40:00;;;;;;;;;;;;;;;;;;5026967;28;4496;-55
2022/11/17 03:42:26;;;;;;;;;;;;;;;;;;5020126;28;4574;-54
2022/11/17 03:44:53;;;;;;;;;;;;;;;;;;5024725;28;4427;-55
2022/11/17 03:47:19;;;;;;;;;;;;;;;;;;5025615;28;1784;-52
2022/11/17 03:49:48;;;;;;;;;;;;;;;;;;5002778;28;4899;-56
2022/11/17 03:52:13;;;;;;;;;;;;;;;;;;5008000;28;4996;-56
2022/11/17 03:54:38;;;;;;;;;;;;;;;;;;5007586;28;4672;-56
2022/11/17 03:57:07;;;;;;;;;;;;;;;;;;5003326;28;5160;-55
2022/11/17 03:59:35;;;;;;;;;;;;;;;;;;5010743;28;5148;-52
2022/11/17 04:02:00;;;;;;;;;;;;;;;;;;5027463;28;1220;-55
2022/11/17 04:05:04;;;;;;;;;;;;;;;;;;5028556;28;5073;-54
2022/11/17 04:07:11;;;;;;;;;;;;;;;;;;5028371;28;5072;-54
2022/11/17 04:09:36;;;;;;;;;;;;;;;;;;5028578;28;5170;-55
2022/11/17 04:17:29;;;;;;;;;;;;;;;;;;5022009;28;4925;-55
2022/11/17 04:19:54;;;;;;;;;;;;;;;;;;5009143;28;968;-55
2022/11/17 04:22:19;;;;;;;;;;;;;;;;;;5016379;28;5049;-54
2022/11/17 04:24:44;;;;;;;;;;;;;;;;;;5027756;28;5058;-55
2022/11/17 04:29:53;;;;;;;;;;;;;;;;;;5028458;28;4554;-55
2022/11/17 04:32:19;;;;;;;;;;;;;;;;;;5027958;28;1884;-52
2022/11/17 04:34:44;;;;;;;;;;;;;;;;;;5019722;28;4772;-53
2022/11/17 04:37:16;;;;;;;;;;;;;;;;;;5009022;28;4813;-55
2022/11/17 04:39:41;;;;;;;;;;;;;;;;;;5022031;28;4871;-55
2022/11/17 04:42:06;;;;;;;;;;;;;;;;;;5028480;28;5105;-52
2022/11/17 04:44:32;;;;;;;;;;;;;;;;;;5028553;28;4586;-53
2022/11/17 04:46:57;;;;;;;;;;;;;;;;;;5021286;28;1813;-53
2022/11/17 04:49:23;;;;;;;;;;;;;;;;;;5011178;28;4987;-55
2022/11/17 04:51:48;;;;;;;;;;;;;;;;;;5009334;28;4999;-54
2022/11/17 04:54:14;;;;;;;;;;;;;;;;;;5021704;28;5529;-54
2022/11/17 04:56:40;;;;;;;;;;;;;;;;;;5023526;28;4783;-56
2022/11/17 04:59:05;;;;;;;;;;;;;;;;;;5009020;28;2096;-53
2022/11/17 05:01:30;;;;;;;;;;;;;;;;;;5029695;28;5082;-55
2022/11/17 05:03:59;;;;;;;;;;;;;;;;;;5025626;28;5863;-55
2022/11/17 05:06:25;;;;;;;;;;;;;;;;;;5032073;28;5019;-54
2022/11/17 05:08:54;;;;;;;;;;;;;;;;;;5032392;28;4976;-54
2022/11/17 05:14:04;;;;;;;;;;;;;;;;;;5031928;28;4557;-55
2022/11/17 05:19:14;;;;;;;;;;;;;;;;;;5031549;28;4486;-54
2022/11/17 05:21:39;;;;;;;;;;;;;;;;;;5030150;28;5151;-54
2022/11/17 05:24:05;;;;;;;;;;;;;;;;;;5031153;28;5072;-54
2022/11/17 05:26:31;;;;;;;;;;;;;;;;;;5031686;28;4615;-56
2022/11/17 05:28:56;;;;;;;;;;;;;;;;;;5030271;28;4815;-55
2022/11/17 05:31:22;;;;;;;;;;;;;;;;;;5043155;28;4441;-54
2022/11/17 05:33:47;;;;;;;;;;;;;;;;;;5026358;28;4991;-53
2022/11/17 05:36:12;;;;;;;;;;;;;;;;;;5020069;28;4920;-54
2022/11/17 05:38:38;;;;;;;;;;;;;;;;;;5012221;28;4545;-53
2022/11/17 05:41:03;;;;;;;;;;;;;;;;;;5018295;28;1964;-54
2022/11/17 05:43:28;;;;;;;;;;;;;;;;;;5012349;28;5042;-54
2022/11/17 05:45:54;;;;;;;;;;;;;;;;;;5022011;28;5244;-52
2022/11/17 05:48:19;;;;;;;;;;;;;;;;;;5019412;28;4984;-51
2022/11/17 05:50:44;;;;;;;;;;;;;;;;;;5011250;28;5037;-54
2022/11/17 05:53:09;;;;;;;;;;;;;;;;;;5020067;28;1834;-54
2022/11/17 05:55:35;;;;;;;;;;;;;;;;;;5029118;28;4968;-55
2022/11/17 05:58:04;;;;;;;;;;;;;;;;;;5027520;28;4949;-54
2022/11/17 06:00:29;;;;;;;;;;;;;;;;;;5036654;28;5173;-55
2022/11/17 06:02:56;;;;;;;;;;;;;;;;;;5021635;28;5097;-54
2022/11/17 06:05:22;;;;;;;;;;;;;;;;;;5024690;28;5091;-54
2022/11/17 06:07:48;;;;;;;;;;;;;;;;;;5031608;28;1837;-54
2022/11/17 06:10:14;;;;;;;;;;;;;;;;;;5024113;28;4953;-53
2022/11/17 06:12:39;;;;;;;;;;;;;;;;;;5012833;28;5043;-55
2022/11/17 06:15:04;;;;;;;;;;;;;;;;;;5026856;28;5182;-53
2022/11/17 06:17:32;;;;;;;;;;;;;;;;;;5017297;28;5476;-57
2022/11/17 06:19:59;;;;;;;;;;;;;;;;;;5022073;28;2273;-58
2022/11/17 06:22:25;;;;;;;;;;;;;;;;;;5041715;28;5054;-60
2022/11/17 06:24:50;;;;;;;;;;;;;;;;;;5034240;28;5019;-57
2022/11/17 06:27:16;;;;;;;;;;;;;;;;;;5026668;28;4456;-59
2022/11/17 06:29:41;;;;;;;;;;;;;;;;;;5030133;28;4585;-58
2022/11/17 06:32:07;;;;;;;;;;;;;;;;;;5030878;28;1135;-59
2022/11/17 06:34:33;;;;;;;;;;;;;;;;;;5029276;28;4984;-59
2022/11/17 06:36:59;;;;;;;;;;;;;;;;;;5029663;28;4986;-59
2022/11/17 06:39:24;;;;;;;;;;;;;;;;;;5021351;28;5013;-59
2022/11/17 06:41:49;;;;;;;;;;;;;;;;;;5009935;28;5023;-58
2022/11/17 06:44:14;;;;;;;;;;;;;;;;;;5010754;28;1335;-59
2022/11/17 06:46:40;;;;;;;;;;;;;;;;;;5028976;28;5002;-59
2022/11/17 06:49:08;;;;;;;;;;;;;;;;;;5024106;28;4882;-62
2022/11/17 06:51:33;;;;;;;;;;;;;;;;;;5029598;28;4501;-59
2022/11/17 06:53:59;;;;;;;;;;;;;;;;;;5028167;28;5072;-59
2022/11/17 06:56:24;;;;;;;;;;;;;;;;;;5028540;28;5593;-58
2022/11/17 06:58:49;;;;;;;;;;;;;;;;;;5012828;28;1879;-60
2022/11/17 07:01:15;;;;;;;;;;;;;;;;;;5014109;28;5103;-59
2022/11/17 07:03:41;;;;;;;;;;;;;;;;;;5019831;28;4509;-58
2022/11/17 07:06:07;;;;;;;;;;;;;;;;;;5014349;28;5780;-58
2022/11/17 07:08:32;;;;;;;;;;;;;;;;;;5023541;28;5340;-57
2022/11/17 07:11:01;;;;;;;;;;;;;;;;;;5017816;28;2172;-57
2022/11/17 07:13:27;;;;;;;;;;;;;;;;;;5035822;28;4408;-60
2022/11/17 07:15:52;;;;;;;;;;;;;;;;;;5027752;28;5038;-57
2022/11/17 07:18:18;;;;;;;;;;;;;;;;;;5014091;28;5209;-57
2022/11/17 07:20:43;;;;;;;;;;;;;;;;;;5009216;28;5126;-56
2022/11/17 07:23:08;;;;;;;;;;;;;;;;;;5009684;28;1864;-57
2022/11/17 07:25:33;;;;;;;;;;;;;;;;;;5014338;28;5017;-57
2022/11/17 07:27:59;;;;;;;;;;;;;;;;;;5020400;28;5190;-57
2022/11/17 07:30:24;;;;;;;;;;;;;;;;;;5014863;28;5032;-57
2022/11/17 07:32:49;;;;;;;;;;;;;;;;;;5044549;28;5044;-56
2022/11/17 07:35:15;;;;;;;;;;;;;;;;;;5029638;28;1183;-58
2022/11/17 07:37:40;;;;;;;;;;;;;;;;;;5020691;28;4973;-57
2022/11/17 07:40:06;;;;;;;;;;;;;;;;;;5018753;28;5087;-58
2022/11/17 07:42:31;;;;;;;;;;;;;;;;;;5025376;28;4860;-63
2022/11/17 07:44:56;;;;;;;;;;;;;;;;;;5016473;28;5007;-58
2022/11/17 07:47:22;;;;;;;;;;;;;;;;;;5025146;28;4482;-57
2022/11/17 07:49:47;;;;;;;;;;;;;;;;;;5014355;28;2042;-57
2022/11/17 07:52:12;;;;;;;;;;;;;;;;;;5014645;28;5095;-56
2022/11/17 07:54:37;;;;;;;;;;;;;;;;;;5023095;28;5014;-58
2022/11/17 07:57:03;;;;;;;;;;;;;;;;;;5021623;28;5099;-58
2022/11/17 07:59:28;;;;;;;;;;;;;;;;;;5013513;28;5593;-57
2022/11/17 08:01:53;;;;;;;;;;;;;;;;;;5012747;28;1857;-57
2022/11/17 08:04:19;;;;;;;;;;;;;;;;;;5016825;28;5013;-57
2022/11/17 08:06:44;;;;;;;;;;;;;;;;;;5022145;28;5163;-56
2022/11/17 08:09:12;;;;;;;;;;;;;;;;;;5018851;28;4932;-56
2022/11/17 08:11:37;;;;;;;;;;;;;;;;;;5015551;28;5203;-56
2022/11/17 08:14:02;;;;;;;;;;;;;;;;;;5023145;28;1928;-57
2022/11/17 08:16:29;;;;;;;;;;;;;;;;;;5016287;28;4466;-56
2022/11/17 08:18:56;;;;;;;;;;;;;;;;;;5018993;28;5083;-57
2022/11/17 08:21:21;;;;;;;;;;;;;;;;;;5014738;28;5172;-57
2022/11/17 08:23:51;;;;;;;;;;;;;;;;;;5018028;28;4682;-57
2022/11/17 08:26:16;;;;;;;;;;;;;;;;;;5018517;28;1762;-56
2022/11/17 08:28:42;;;;;;;;;;;;;;;;;;5015529;28;4982;-56
2022/11/17 08:31:07;;;;;;;;;;;;;;;;;;5017541;28;5091;-56
2022/11/17 08:33:32;;;;;;;;;;;;;;;;;;5017903;28;5111;-57
2022/11/17 08:35:58;;;;;;;;;;;;;;;;;;5024490;28;5125;-57
2022/11/17 08:38:27;;;;;;;;;;;;;;;;;;5040311;28;5699;-56
2022/11/17 08:40:53;;;;;;;;;;;;;;;;;;5034880;28;1854;-55
2022/11/17 08:43:19;;;;;;;;;;;;;;;;;;5022924;28;5062;-57
2022/11/17 08:45:44;;;;;;;;;;;;;;;;;;5020310;28;4470;-55
2022/11/17 08:48:09;;;;;;;;;;;;;;;;;;5018033;28;5567;-57
2022/11/17 08:50:34;;;;;;;;;;;;;;;;;;5024445;28;5323;-57
2022/11/17 08:53:00;;;;;;;;;;;;;;;;;;5023071;28;1861;-56
2022/11/17 08:55:25;;;;;;;;;;;;;;;;;;5021638;28;5174;-56
2022/11/17 08:57:50;;;;;;;;;;;;;;;;;;5025322;28;5029;-55
2022/11/17 09:00:18;;;;;;;;;;;;;;;;;;5023989;28;5102;-56
2022/11/17 09:02:44;;;;;;;;;;;;;;;;;;5018888;28;5400;-56
2022/11/17 09:05:10;;;;;;;;;;;;;;;;;;5022702;28;1820;-58
2022/11/17 09:07:35;;;;;;;;;;;;;;;;;;5021544;28;4592;-55
2022/11/17 09:10:00;;;;;;;;;;;;;;;;;;5022041;28;4967;-60
2022/11/17 09:12:26;;;;;;;;;;;;;;;;;;5018994;28;5525;-60
2022/11/17 09:14:51;;;;;;;;;;;;;;;;;;5020509;28;4526;-61
2022/11/17 09:17:16;;;;;;;;;;;;;;;;;;5024308;28;2032;-61
2022/11/17 09:19:41;;;;;;;;;;;;;;;;;;5031305;28;5068;-56
2022/11/17 09:22:07;;;;;;;;;;;;;;;;;;5022345;28;4558;-59
2022/11/17 09:24:32;;;;;;;;;;;;;;;;;;5028173;28;4951;-55
2022/11/17 09:26:57;;;;;;;;;;;;;;;;;;5035687;28;4491;-55
2022/11/17 09:29:23;;;;;;;;;;;;;;;;;;5024779;28;4596;-55
2022/11/17 09:31:48;;;;;;;;;;;;;;;;;;5021180;28;1650;-55
2022/11/17 09:34:13;;;;;;;;;;;;;;;;;;5019415;28;4600;-55
2022/11/17 09:36:38;;;;;;;;;;;;;;;;;;5030640;28;5033;-57
2022/11/17 09:39:04;;;;;;;;;;;;;;;;;;5024212;28;5030;-55
2022/11/17 09:41:33;;;;;;;;;;;;;;;;;;5027870;28;4444;-56
2022/11/17 09:43:58;;;;;;;;;;;;;;;;;;5037757;28;1777;-55
2022/11/17 09:46:28;;;;;;;;;;;;;;;;;;5038826;28;5059;-55
2022/11/17 09:49:14;;;;;;;;;;;;;;;;;;5026281;28;4660;-55
2022/11/17 09:51:40;;;;;;;;;;;;;;;;;;5012344;28;4976;-55
2022/11/17 09:54:05;;;;;;;;;;;;;;;;;;5002706;28;4972;-55
2022/11/17 09:56:30;;;;;;;;;;;;;;;;;;5000513;28;4563;-54
2022/11/17 09:58:57;;;;;;;;;;;;;;;;;;5003739;28;2182;-56
2022/11/17 10:01:23;;;;;;;;;;;;;;;;;;5005667;28;5006;-56
2022/11/17 10:03:48;;;;;;;;;;;;;;;;;;4996673;28;4730;-56
2022/11/17 10:06:24;;;;;;;;;;;;;;;;;;5000900;28;4796;-56
2022/11/17 10:08:57;;;;;;;;;;;;;;;;;;5004869;28;4565;-56
2022/11/17 10:11:31;;;;;;;;;;;;;;;;;;5016366;28;5069;-56
2022/11/17 10:14:03;;;;;;;;;;;;;;;;;;5003699;28;1449;-57
2022/11/17 10:16:28;;;;;;;;;;;;;;;;;;5019990;28;4946;-57
2022/11/17 10:18:54;;;;;;;;;;;;;;;;;;5014488;28;5097;-56
2022/11/17 10:21:19;;;;;;;;;;;;;;;;;;5002453;28;5263;-56
2022/11/17 10:23:44;;;;;;;;;;;;;;;;;;5001306;28;4954;-60
2022/11/17 10:26:13;;;;;;;;;;;;;;;;;;5019062;28;1787;-57
2022/11/17 10:28:38;;;;;;;;;;;;;;;;;;5017450;28;5090;-59
2022/11/17 10:31:09;;;;;;;;;;;;;;;;;;4999734;28;5288;-57
2022/11/17 10:33:36;;;;;;;;;;;;;;;;;;4995264;28;4980;-58
2022/11/17 10:36:01;;;;;;;;;;;;;;;;;;5000501;28;5105;-57
2022/11/17 10:38:27;;;;;;;;;;;;;;;;;;5005594;28;5070;-57
2022/11/17 10:40:53;;;;;;;;;;;;;;;;;;5017001;28;2002;-57
2022/11/17 10:43:20;;;;;;;;;;;;;;;;;;5002288;28;4594;-61
2022/11/17 10:45:50;;;;;;;;;;;;;;;;;;5014990;28;5131;-58
2022/11/17 10:48:28;;;;;;;;;;;;;;;;;;4998864;28;5126;-63
2022/11/17 10:51:02;;;;;;;;;;;;;;;;;;5001730;28;4999;-58
2022/11/17 10:53:32;;;;;;;;;;;;;;;;;;5015040;28;5160;-56
2022/11/17 10:56:03;;;;;;;;;;;;;;;;;;5020373;28;2077;-59
2022/11/17 10:58:29;;;;;;;;;;;;;;;;;;5018059;28;4967;-58
2022/11/17 11:00:55;;;;;;;;;;;;;;;;;;5024290;28;4521;-57
2022/11/17 11:03:21;;;;;;;;;;;;;;;;;;5035396;28;5213;-58
2022/11/17 11:05:59;;;;;;;;;;;;;;;;;;5022420;28;5176;-57
2022/11/17 11:08:25;;;;;;;;;;;;;;;;;;5023972;28;5107;-57
2022/11/17 11:10:51;;;;;;;;;;;;;;;;;;5039065;28;1935;-57
2022/11/17 11:13:29;;;;;;;;;;;;;;;;;;5038694;28;4981;-60
2022/11/17 11:15:54;;;;;;;;;;;;;;;;;;5018637;28;4623;-57
2022/11/17 11:18:19;;;;;;;;;;;;;;;;;;5004918;28;5068;-57
2022/11/17 11:20:56;;;;;;;;;;;;;;;;;;5024260;28;5353;-57
2022/11/17 11:23:41;;;;;;;;;;;;;;;;;;5026097;28;5074;-54
2022/11/17 11:26:27;;;;;;;;;;;;;;;;;;5014511;28;1826;-56
2022/11/17 11:29:11;;;;;;;;;;;;;;;;;;5027039;28;4628;-58
2022/11/17 11:31:36;;;;;;;;;;;;;;;;;;5023309;28;4789;-58
2022/11/17 11:34:01;;;;;;;;;;;;;;;;;;5022663;28;4502;-58
2022/11/17 11:36:27;;;;;;;;;;;;;;;;;;5026552;28;5065;-55
2022/11/17 11:38:59;;;;;;;;;;;;;;;;;;5040919;28;4981;-56
2022/11/17 11:41:27;;;;;;;;;;;;;;;;;;5044860;28;5065;-57
2022/11/17 11:43:55;;;;;;;;;;;;;;;;;;5043962;28;1726;-57
2022/11/17 11:46:21;;;;;;;;;;;;;;;;;;5012540;28;4909;-56
2022/11/17 11:48:46;;;;;;;;;;;;;;;;;;5028403;28;4908;-58
2022/11/17 11:51:16;;;;;;;;;;;;;;;;;;5021817;28;4930;-57
2022/11/17 11:53:50;;;;;;;;;;;;;;;;;;5002877;28;5132;-55
2022/11/17 11:56:17;;;;;;;;;;;;;;;;;;5022287;28;2018;-54
2022/11/17 11:58:44;;;;;;;;;;;;;;;;;;5042142;28;4991;-57
2022/11/17 12:01:10;;;;;;;;;;;;;;;;;;5033898;28;4604;-60
2022/11/17 12:03:36;;;;;;;;;;;;;;;;;;5023119;28;4961;-62
2022/11/17 12:09:00;;;;;;;;;;;;;;;;;;5017044;28;4624;-61
2022/11/17 12:14:10;;;;;;;;;;;;;;;;;;5019410;28;1463;-59
2022/11/17 12:16:38;;;;;;;;;;;;;;;;;;5021152;28;4590;-60
2022/11/17 12:19:24;;;;;;;;;;;;;;;;;;5011947;28;4512;-60
2022/11/17 12:21:52;;;;;;;;;;;;;;;;;;5014329;28;4485;-60
2022/11/17 12:24:19;;;;;;;;;;;;;;;;;;5017233;28;4521;-60
2022/11/17 12:26:45;;;;;;;;;;;;;;;;;;5035148;28;4606;-60
2022/11/17 12:29:19;;;;;;;;;;;;;;;;;;5016688;28;4493;-59
2022/11/17 12:31:53;;;;;;;;;;;;;;;;;;5026777;28;5033;-60
2022/11/17 12:34:22;;;;;;;;;;;;;;;;;;5018474;28;4574;-59
2022/11/17 12:37:05;;;;;;;;;;;;;;;;;;5022934;28;4996;-60
2022/11/17 12:39:49;;;;;;;;;;;;;;;;;;5022843;28;5051;-57
2022/11/17 12:42:14;;;;;;;;;;;;;;;;;;5018488;28;5364;-57
2022/11/17 12:44:46;;;;;;;;;;;;;;;;;;5020014;28;4640;-58
2022/11/17 12:47:21;;;;;;;;;;;;;;;;;;5012951;28;1785;-57
2022/11/17 12:49:49;;;;;;;;;;;;;;;;;;4999064;28;5127;-57
2022/11/17 12:52:34;;;;;;;;;;;;;;;;;;5003911;28;4998;-57
2022/11/17 12:55:12;;;;;;;;;;;;;;;;;;4991528;28;4949;-56
2022/11/17 12:57:37;;;;;;;;;;;;;;;;;;4997075;28;4999;-57
2022/11/17 13:00:10;;;;;;;;;;;;;;;;;;5001874;28;4436;-55
2022/11/17 13:02:42;;;;;;;;;;;;;;;;;;4998445;28;5097;-55
2022/11/17 13:05:11;;;;;;;;;;;;;;;;;;5000650;28;1683;-56
2022/11/17 13:07:36;;;;;;;;;;;;;;;;;;5018718;28;4446;-56
2022/11/17 13:10:01;;;;;;;;;;;;;;;;;;4995983;28;5062;-56
2022/11/17 13:12:28;;;;;;;;;;;;;;;;;;5000589;28;4641;-56
2022/11/17 13:15:01;;;;;;;;;;;;;;;;;;5039695;28;4473;-58
2022/11/17 13:17:33;;;;;;;;;;;;;;;;;;4989959;28;5084;-60
2022/11/17 13:19:59;;;;;;;;;;;;;;;;;;5026458;28;2012;-48
2022/11/17 13:22:24;;;;;;;;;;;;;;;;;;5003083;28;5053;-53
2022/11/17 13:24:52;;;;;;;;;;;;;;;;;;4997945;28;5030;-53
2022/11/17 13:27:30;;;;;;;;;;;;;;;;;;5008270;28;5155;-54
2022/11/17 13:30:33;;;;;;;;;;;;;;;;;;4998011;28;5224;-54
2022/11/17 13:33:00;;;;;;;;;;;;;;;;;;4988028;28;4564;-55
2022/11/17 13:35:28;;;;;;;;;;;;;;;;;;4987487;28;4988;-54
2022/11/17 13:37:59;;;;;;;;;;;;;;;;;;4994837;28;1914;-56
2022/11/17 13:40:24;;;;;;;;;;;;;;;;;;5006994;28;4921;-56
2022/11/17 13:42:50;;;;;;;;;;;;;;;;;;5011145;28;5109;-55
2022/11/17 13:45:15;;;;;;;;;;;;;;;;;;5008811;28;4979;-54
2022/11/17 13:47:41;;;;;;;;;;;;;;;;;;5006160;28;5056;-54
2022/11/17 13:50:21;;;;;;;;;;;;;;;;;;5010823;28;1846;-55
2022/11/17 13:52:50;;;;;;;;;;;;;;;;;;5029402;28;5203;-56
2022/11/17 13:55:16;;;;;;;;;;;;;;;;;;5043971;28;5014;-55
2022/11/17 13:57:42;;;;;;;;;;;;;;;;;;5029397;28;5233;-55
2022/11/17 14:00:14;;;;;;;;;;;;;;;;;;5038785;28;4992;-55
2022/11/17 14:02:50;;;;;;;;;;;;;;;;;;5026187;28;4990;-56
2022/11/17 14:05:18;;;;;;;;;;;;;;;;;;5021508;28;1877;-55
2022/11/17 14:07:43;;;;;;;;;;;;;;;;;;5022317;28;5011;-54
2022/11/17 14:10:21;;;;;;;;;;;;;;;;;;5026135;28;4987;-55
2022/11/17 14:12:46;;;;;;;;;;;;;;;;;;5027160;28;4550;-54
2022/11/17 14:15:21;;;;;;;;;;;;;;;;;;5030705;28;4944;-54
2022/11/17 14:17:50;;;;;;;;;;;;;;;;;;5027427;28;5013;-59
2022/11/17 14:20:29;;;;;;;;;;;;;;;;;;5026009;28;1867;-58
2022/11/17 14:23:00;;;;;;;;;;;;;;;;;;5006234;28;4579;-58
2022/11/17 14:25:26;;;;;;;;;;;;;;;;;;5020101;28;4582;-59
2022/11/17 14:27:52;;;;;;;;;;;;;;;;;;5020980;28;5060;-59
2022/11/17 14:30:17;;;;;;;;;;;;;;;;;;5022171;28;5037;-60
2022/11/17 14:32:42;;;;;;;;;;;;;;;;;;5020192;28;5278;-57
2022/11/17 14:35:11;;;;;;;;;;;;;;;;;;5022061;28;1796;-56
2022/11/17 14:37:36;;;;;;;;;;;;;;;;;;5022868;28;5148;-57
2022/11/17 14:40:03;;;;;;;;;;;;;;;;;;5025284;28;4611;-57
2022/11/17 14:42:29;;;;;;;;;;;;;;;;;;5016891;28;5268;-57
2022/11/17 14:44:54;;;;;;;;;;;;;;;;;;5016209;28;4963;-57
2022/11/17 14:47:19;;;;;;;;;;;;;;;;;;5019300;28;1889;-58
2022/11/17 14:49:44;;;;;;;;;;;;;;;;;;5023957;28;5226;-55
2022/11/17 14:52:10;;;;;;;;;;;;;;;;;;5026415;28;5147;-51
2022/11/17 14:54:35;;;;;;;;;;;;;;;;;;5027716;28;5094;-55
2022/11/17 14:57:00;;;;;;;;;;;;;;;;;;5027917;28;4708;-54
2022/11/17 14:59:25;;;;;;;;;;;;;;;;;;5030524;28;4539;-54
2022/11/17 15:01:51;;;;;;;;;;;;;;;;;;5038547;28;1826;-55
2022/11/17 15:04:16;;;;;;;;;;;;;;;;;;5019718;28;6055;-60
2022/11/17 15:06:41;;;;;;;;;;;;;;;;;;5013238;28;4882;-56
2022/11/17 15:09:07;;;;;;;;;;;;;;;;;;5012962;28;5518;-55
2022/11/17 15:11:32;;;;;;;;;;;;;;;;;;5026433;28;5436;-57
2022/11/17 15:14:01;;;;;;;;;;;;;;;;;;5028891;28;1813;-54
2022/11/17 15:16:26;;;;;;;;;;;;;;;;;;5023989;28;4420;-55
2022/11/17 15:18:51;;;;;;;;;;;;;;;;;;5024954;28;4553;-53
2022/11/17 15:21:17;;;;;;;;;;;;;;;;;;5027230;28;5052;-52
2022/11/17 15:23:42;;;;;;;;;;;;;;;;;;5017101;28;4504;-55
2022/11/17 15:26:09;;;;;;;;;;;;;;;;;;5015959;28;1824;-54
2022/11/17 15:28:34;;;;;;;;;;;;;;;;;;5025728;28;5021;-59
2022/11/17 15:31:06;;;;;;;;;;;;;;;;;;5018968;28;4471;-57
2022/11/17 15:33:31;;;;;;;;;;;;;;;;;;5013383;28;4906;-57
2022/11/17 15:36:03;;;;;;;;;;;;;;;;;;5023963;28;5240;-56
2022/11/17 15:38:28;;;;;;;;;;;;;;;;;;5020293;28;4662;-55
2022/11/17 15:40:53;;;;;;;;;;;;;;;;;;5011189;28;1861;-57
2022/11/17 15:43:19;;;;;;;;;;;;;;;;;;5022342;28;4435;-56
2022/11/17 15:45:44;;;;;;;;;;;;;;;;;;5024697;28;4664;-57
2022/11/17 15:48:09;;;;;;;;;;;;;;;;;;5010833;28;4963;-54
2022/11/17 15:50:34;;;;;;;;;;;;;;;;;;5017890;28;5290;-56
2022/11/17 15:53:00;;;;;;;;;;;;;;;;;;5027648;28;1832;-55
2022/11/17 15:55:25;;;;;;;;;;;;;;;;;;5028399;28;4459;-54
2022/11/17 15:57:51;;;;;;;;;;;;;;;;;;5021856;28;5141;-53
2022/11/17 16:00:17;;;;;;;;;;;;;;;;;;5023330;28;5041;-61
2022/11/17 16:02:42;;;;;;;;;;;;;;;;;;5015300;28;5059;-60
2022/11/17 16:05:07;;;;;;;;;;;;;;;;;;5024884;28;2230;-60
2022/11/17 16:07:32;;;;;;;;;;;;;;;;;;5017047;28;6136;-60
2022/11/17 16:09:58;;;;;;;;;;;;;;;;;;5015376;28;4439;-63
2022/11/17 16:12:23;;;;;;;;;;;;;;;;;;5028172;28;5238;-58
2022/11/17 16:14:48;;;;;;;;;;;;;;;;;;5027077;28;4688;-53
2022/11/17 16:17:13;;;;;;;;;;;;;;;;;;5027495;28;1914;-57
2022/11/17 16:19:39;;;;;;;;;;;;;;;;;;5008957;28;4902;-57
2022/11/17 16:22:04;;;;;;;;;;;;;;;;;;5010722;28;4698;-56
2022/11/17 16:24:29;;;;;;;;;;;;;;;;;;5027348;28;4716;-55
2022/11/17 16:26:54;;;;;;;;;;;;;;;;;;5028284;28;5025;-57
2022/11/17 16:29:19;;;;;;;;;;;;;;;;;;5020778;28;4842;-55
2022/11/17 16:31:45;;;;;;;;;;;;;;;;;;5008829;28;4976;-56
2022/11/17 16:34:14;;;;;;;;;;;;;;;;;;5023125;28;5095;-57
2022/11/17 16:36:40;;;;;;;;;;;;;;;;;;5028552;28;4378;-56
2022/11/17 16:39:06;;;;;;;;;;;;;;;;;;5028516;28;4660;-56
2022/11/17 16:41:32;;;;;;;;;;;;;;;;;;5028277;28;5065;-56
2022/11/17 16:43:58;;;;;;;;;;;;;;;;;;5027974;28;1605;-56
2022/11/17 16:46:24;;;;;;;;;;;;;;;;;;5028368;28;4421;-56
2022/11/17 16:48:49;;;;;;;;;;;;;;;;;;5015975;28;5198;-57
2022/11/17 16:51:15;;;;;;;;;;;;;;;;;;5008704;28;5093;-56
2022/11/17 16:53:41;;;;;;;;;;;;;;;;;;5013424;28;5081;-56
2022/11/17 16:56:07;;;;;;;;;;;;;;;;;;5029100;28;1906;-56
2022/11/17 16:58:32;;;;;;;;;;;;;;;;;;5032138;28;4537;-56
2022/11/17 17:00:57;;;;;;;;;;;;;;;;;;5032239;28;4438;-57
2022/11/17 17:03:23;;;;;;;;;;;;;;;;;;5031238;28;5458;-57
2022/11/17 17:05:48;;;;;;;;;;;;;;;;;;5032459;28;4980;-56
2022/11/17 17:08:13;;;;;;;;;;;;;;;;;;5032864;28;1169;-56
2022/11/17 17:10:38;;;;;;;;;;;;;;;;;;5032256;28;4525;-56
2022/11/17 17:13:04;;;;;;;;;;;;;;;;;;5024103;28;5129;-56
2022/11/17 17:15:29;;;;;;;;;;;;;;;;;;5030892;28;5316;-56
2022/11/17 17:17:54;;;;;;;;;;;;;;;;;;5033052;28;5297;-56
2022/11/17 17:20:19;;;;;;;;;;;;;;;;;;5048115;28;1572;-54
2022/11/17 17:22:45;;;;;;;;;;;;;;;;;;5043648;28;4901;-64
2022/11/17 17:25:10;;;;;;;;;;;;;;;;;;5051305;28;4968;-60
2022/11/17 17:27:35;;;;;;;;;;;;;;;;;;5037310;28;5066;-57
2022/11/17 17:30:00;;;;;;;;;;;;;;;;;;5032553;28;4894;-57
2022/11/17 17:32:26;;;;;;;;;;;;;;;;;;5050018;28;5049;-59
2022/11/17 17:34:51;;;;;;;;;;;;;;;;;;5028680;28;1487;-61